Time;durP1;ratioP1;P1;durP2;ratioP2;P2;SDS_P1;SDS_P2;PMS_P1;PMS_P2;Temp;Humidity;BMP_temperature;BMP_pressure;BME280_temperature;BME280_humidity;BME280_pressure;Samples;Min_cycle;Max_cycle;Signal;HPM_P1;HPM_P2
2022/02/08 00:00:21;;;;;;;29.50;9.18;;;;;;;0.82;82.85;96744.09;1670710;83;21024;-84
2022/02/08 00:02:52;;;;;;;47.60;17.05;;;;;;;0.83;82.95;96736.77;1687110;83;21115;-85
2022/02/08 00:05:18;;;;;;;21.62;9.05;;;;;;;0.86;83.05;96745.49;1690797;82;21087;-84
2022/02/08 00:07:47;;;;;;;47.23;17.37;;;;;;;0.88;83.05;96750.84;1630626;86;21048;-84
2022/02/08 00:10:11;;;;;;;17.05;6.53;;;;;;;0.80;82.71;96731.39;1687225;83;21567;-84
2022/02/08 00:12:37;;;;;;;18.67;7.70;;;;;;;0.91;82.84;96748.52;1692822;83;21015;-84
2022/02/08 00:15:03;;;;;;;24.20;9.25;;;;;;;0.92;82.73;96753.17;1690025;83;20982;-85
2022/02/08 00:17:29;;;;;;;21.02;8.38;;;;;;;0.90;82.66;96755.84;1689860;83;21413;-84
2022/02/08 00:19:55;;;;;;;22.93;8.03;;;;;;;0.87;82.75;96750.95;1692178;83;21085;-84
2022/02/08 00:22:20;;;;;;;70.37;24.32;;;;;;;0.88;82.76;96755.96;1696346;83;21095;-85
2022/02/08 00:24:46;;;;;;;67.62;25.08;;;;;;;0.93;82.84;96754.80;1696420;83;21031;-85
2022/02/08 00:27:12;;;;;;;27.13;9.03;;;;;;;0.92;82.67;96748.87;1696003;83;21084;-84
2022/02/08 00:29:38;;;;;;;55.05;20.60;;;;;;;0.94;82.83;96753.87;1696284;83;21060;-84
2022/02/08 00:32:06;;;;;;;27.30;10.35;;;;;;;0.95;82.85;96760.61;1692843;83;20984;-85
2022/02/08 00:34:32;;;;;;;40.03;13.78;;;;;;;0.93;82.81;96764.56;1689955;84;21033;-84
2022/02/08 00:36:57;;;;;;;25.52;10.05;;;;;;;0.97;82.93;96765.15;1688676;83;21002;-84
2022/02/08 00:39:24;;;;;;;45.65;16.73;;;;;;;0.97;82.87;96766.43;1696518;83;21069;-84
2022/02/08 00:41:49;;;;;;;17.35;7.33;;;;;;;1.01;82.85;96773.79;1634159;86;21061;-84
2022/02/08 00:44:24;;;;;;;22.50;8.30;;;;;;;1.00;82.59;96775.19;1690835;83;21034;-84
2022/02/08 00:46:57;;;;;;;19.12;7.83;;;;;;;0.98;82.55;96780.42;1690162;83;20994;-85
2022/02/08 00:49:16;;;;;;;21.30;9.33;;;;;;;0.94;82.53;96780.73;1683718;83;20995;-84
2022/02/08 00:51:46;;;;;;;18.65;6.35;;;;;;;0.89;82.56;96776.78;1694213;83;20984;-85
2022/02/08 00:54:15;;;;;;;20.57;6.22;;;;;;;0.88;82.53;96785.37;1691364;83;21052;-84
2022/02/08 00:56:40;;;;;;;18.75;9.23;;;;;;;0.87;82.18;96792.70;1687619;83;21334;-84
2022/02/08 00:59:07;;;;;;;22.15;7.25;;;;;;;0.89;82.55;96790.03;1695206;83;21042;-84
2022/02/08 01:01:36;;;;;;;15.72;5.80;;;;;;;0.92;82.57;96785.15;1643434;86;21014;-84
2022/02/08 01:04:01;;;;;;;13.03;4.87;;;;;;;0.93;82.56;96789.34;1696349;83;20965;-84
2022/02/08 01:06:28;;;;;;;24.95;8.85;;;;;;;0.91;82.46;96792.02;1690597;83;21044;-84
2022/02/08 01:09:05;;;;;;;28.05;11.33;;;;;;;0.93;82.44;96796.55;1702391;83;21020;-84
2022/02/08 01:11:22;;;;;;;23.98;9.18;;;;;;;0.96;82.48;96795.04;1701219;84;21375;-85
2022/02/08 01:13:48;;;;;;;23.70;7.80;;;;;;;0.96;82.57;96798.06;1681782;84;21046;-84
2022/02/08 01:16:13;;;;;;;19.57;8.03;;;;;;;0.95;82.54;96800.27;1702663;84;21385;-84
2022/02/08 01:18:42;;;;;;;17.55;7.30;;;;;;;0.95;82.61;96808.77;1692422;83;21043;-85
2022/02/08 01:21:07;;;;;;;19.42;7.25;;;;;;;0.97;82.54;96813.30;1697658;83;21010;-84
2022/02/08 01:23:33;;;;;;;18.48;6.47;;;;;;;1.02;82.45;96818.11;1697143;83;21009;-84
2022/02/08 01:26:06;;;;;;;18.40;6.87;;;;;;;1.01;82.13;96820.31;1701853;82;21020;-84
2022/02/08 01:31:07;;;;;;;11.63;4.75;;;;;;;0.99;82.29;96820.89;1692149;83;20965;-84
2022/02/08 01:39:10;;;;;;;19.98;6.60;;;;;;;0.97;82.23;96828.66;1697640;83;21437;-84
2022/02/08 01:44:42;;;;;;;22.25;8.78;;;;;;;0.93;81.98;96836.67;1686201;83;21100;-84
2022/02/08 01:49:37;;;;;;;18.02;5.70;;;;;;;0.92;82.04;96842.25;1677137;83;21008;-85
2022/02/08 01:52:01;;;;;;;36.00;13.03;;;;;;;0.94;82.04;96843.42;1676186;83;21041;-84
2022/02/08 01:54:30;;;;;;;18.48;6.65;;;;;;;0.93;82.02;96841.33;1699357;82;21116;-84
2022/02/08 01:56:56;;;;;;;36.75;14.10;;;;;;;0.94;82.13;96858.31;1708199;83;20936;-84
2022/02/08 01:59:22;;;;;;;25.37;8.03;;;;;;;0.93;82.24;96859.23;1707217;83;21387;-84
2022/02/08 02:01:48;;;;;;;21.02;7.55;;;;;;;0.93;82.00;96857.14;1696153;83;21088;-84
2022/02/08 02:04:14;;;;;;;17.57;8.10;;;;;;;0.93;82.04;96863.53;1696813;83;21129;-83
2022/02/08 02:06:40;;;;;;;12.90;5.55;;;;;;;0.93;82.03;96860.52;1700148;83;21522;-84
2022/02/08 02:09:06;;;;;;;12.88;4.30;;;;;;;0.94;82.01;96871.56;1697026;83;21040;-84
2022/02/08 02:11:33;;;;;;;15.03;4.87;;;;;;;0.93;81.66;96869.47;1693959;83;21054;-84
2022/02/08 02:13:59;;;;;;;16.20;5.70;;;;;;;0.91;81.75;96877.72;1690134;83;21019;-85
2022/02/08 02:18:57;;;;;;;12.50;6.85;;;;;;;0.89;81.98;96884.23;1688999;83;20993;-84
2022/02/08 02:21:22;;;;;;;14.33;5.65;;;;;;;0.91;81.85;96887.95;1635243;86;21489;-84
2022/02/08 02:23:51;;;;;;;16.25;5.42;;;;;;;0.92;81.87;96890.05;1697199;83;20972;-85
2022/02/08 02:26:17;;;;;;;15.43;5.53;;;;;;;0.96;82.12;96892.73;1700851;82;21045;-85
2022/02/08 02:28:43;;;;;;;14.23;5.22;;;;;;;0.96;82.15;96902.97;1699655;83;21301;-84
2022/02/08 02:31:08;;;;;;;17.25;6.00;;;;;;;0.93;82.03;96900.64;1697322;82;20996;-84
2022/02/08 02:33:34;;;;;;;9.98;3.67;;;;;;;0.90;82.34;96901.21;1692829;83;21342;-84
2022/02/08 02:36:00;;;;;;;12.50;4.50;;;;;;;0.90;82.27;96902.95;1695798;83;21334;-84
2022/02/08 02:38:25;;;;;;;12.45;5.03;;;;;;;0.93;82.34;96912.16;1686242;83;21011;-84
2022/02/08 02:40:52;;;;;;;12.58;5.30;;;;;;;0.94;82.42;96915.06;1687476;83;20960;-84
2022/02/08 02:43:19;;;;;;;13.18;5.40;;;;;;;0.93;82.60;96913.44;1691254;83;20985;-84
2022/02/08 02:45:45;;;;;;;11.53;4.80;;;;;;;0.94;82.72;96918.90;1690776;83;20961;-84
2022/02/08 02:48:11;;;;;;;16.02;5.60;;;;;;;0.93;82.62;96921.11;1689222;83;21381;-84
2022/02/08 02:50:37;;;;;;;12.35;3.87;;;;;;;0.94;82.63;96926.58;1696029;83;21051;-85
2022/02/08 02:53:03;;;;;;;15.32;5.53;;;;;;;0.94;82.56;96924.02;1691641;83;21053;-84
2022/02/08 02:55:32;;;;;;;15.30;4.95;;;;;;;0.92;82.48;96936.11;1689032;83;21029;-85
2022/02/08 02:57:57;;;;;;;9.63;4.25;;;;;;;0.90;82.51;96941.34;1675037;83;21369;-84
2022/02/08 03:00:47;;;;;;;18.10;4.78;;;;;;;0.90;82.69;96940.06;1683659;83;21078;-84
2022/02/08 03:03:07;;;;;;;14.58;4.72;;;;;;;0.89;82.84;96940.52;1684122;83;21058;-84
2022/02/08 03:18:46;;;;;;;16.95;4.72;;;;;;;0.90;82.61;96956.69;1685885;83;21074;-84
2022/02/08 03:21:12;;;;;;;17.10;7.37;;;;;;;0.92;82.61;96959.14;1634069;86;21370;-84
2022/02/08 03:23:39;;;;;;;14.40;4.53;;;;;;;0.91;82.56;96965.99;1663215;84;21010;-84
2022/02/08 03:26:05;;;;;;;13.25;5.85;;;;;;;0.92;82.50;96979.14;1691176;83;20984;-84
2022/02/08 03:28:31;;;;;;;15.53;5.03;;;;;;;0.92;82.30;96977.05;1683529;83;21034;-84
2022/02/08 03:30:56;;;;;;;11.20;4.62;;;;;;;0.91;82.38;96978.79;1690094;83;21052;-85
2022/02/08 03:33:24;;;;;;;20.55;6.10;;;;;;;0.90;82.40;96977.16;1694411;83;20983;-84
2022/02/08 03:35:54;;;;;;;13.55;4.42;;;;;;;0.92;81.98;96988.56;1691944;83;21003;-84
2022/02/08 03:38:28;;;;;;;13.25;3.70;;;;;;;0.94;82.05;96990.55;1691700;83;21126;-84
2022/02/08 03:40:52;;;;;;;15.38;4.17;;;;;;;0.92;81.53;96998.33;1688575;83;21490;-84
2022/02/08 03:43:29;;;;;;;9.53;4.60;;;;;;;0.91;81.75;97005.66;1692548;83;21094;-85
2022/02/08 03:45:47;;;;;;;9.83;3.40;;;;;;;0.90;81.63;97010.42;1634349;86;21068;-84
2022/02/08 03:48:16;;;;;;;11.97;4.75;;;;;;;0.88;81.73;97018.67;1699868;83;21380;-84
2022/02/08 03:50:40;;;;;;;12.63;4.40;;;;;;;0.87;81.65;97010.64;1634743;86;21090;-84
2022/02/08 03:53:06;;;;;;;12.33;3.77;;;;;;;0.89;81.66;97013.91;1688642;83;21465;-84
2022/02/08 03:55:32;;;;;;;8.00;3.47;;;;;;;0.87;81.38;97022.97;1682991;84;21063;-84
2022/02/08 03:57:58;;;;;;;10.48;3.70;;;;;;;0.86;81.41;97026.91;1692718;83;21061;-84
2022/02/08 04:00:26;;;;;;;14.70;3.75;;;;;;;0.87;81.28;97017.84;1694360;83;21091;-84
2022/02/08 04:02:55;;;;;;;14.30;3.70;;;;;;;0.91;81.37;97035.08;1683603;83;21007;-84
2022/02/08 04:05:33;;;;;;;11.90;3.58;;;;;;;0.93;81.56;97037.06;1689793;83;21007;-84
2022/02/08 04:07:59;;;;;;;13.30;3.65;;;;;;;0.92;81.21;97034.62;1693472;83;21014;-84
2022/02/08 04:10:26;;;;;;;16.90;4.05;;;;;;;0.91;81.36;97042.75;1673969;83;21021;-84
2022/02/08 04:15:49;;;;;;;14.47;5.20;;;;;;;0.90;81.01;97044.50;1625835;85;21027;-85
2022/02/08 04:39:42;;;;;;;14.25;3.98;;;;;;;0.89;80.94;97095.78;1678525;83;21029;-84
2022/02/08 04:41:44;;;;;;;11.87;4.27;;;;;;;0.89;80.82;97094.50;1680892;84;21326;-84
2022/02/08 04:44:24;;;;;;;13.20;4.33;;;;;;;0.87;80.92;97093.79;1634950;86;20974;-84
2022/02/08 04:49:07;;;;;;;14.95;4.20;;;;;;;0.86;80.86;97103.66;1677168;83;21048;-84
2022/02/08 04:51:41;;;;;;;11.45;3.65;;;;;;;0.86;80.48;97099.37;1679388;82;21460;-85
2022/02/08 04:56:48;;;;;;;16.27;5.00;;;;;;;0.89;80.70;97113.23;1692883;83;21047;-84
2022/02/08 04:59:19;;;;;;;13.45;4.60;;;;;;;0.89;80.68;97110.66;1675105;83;21040;-84
2022/02/08 05:01:52;;;;;;;14.38;4.67;;;;;;;0.88;80.13;97105.66;1680800;83;21026;-84
2022/02/08 05:29:42;;;;;;;10.55;3.58;;;;;;;0.80;79.91;97136.04;1658970;85;21114;-85
2022/02/08 05:44:46;;;;;;;13.40;4.90;;;;;;;0.81;79.75;97141.52;1655973;85;22393;-84
2022/02/08 05:47:11;;;;;;;12.53;5.55;;;;;;;0.81;79.93;97146.20;1658420;85;22634;-84
2022/02/08 05:49:52;;;;;;;15.95;6.53;;;;;;;0.80;79.82;97148.83;1642258;85;21012;-84
2022/02/08 05:54:38;;;;;;;19.30;6.60;;;;;;;0.83;79.67;97158.42;1656197;85;21025;-84
2022/02/08 05:57:05;;;;;;;13.68;4.33;;;;;;;0.84;79.71;97164.36;1651897;85;21120;-84
2022/02/08 05:59:31;;;;;;;13.75;5.28;;;;;;;0.84;79.61;97162.62;1647917;86;22139;-84
2022/02/08 06:01:56;;;;;;;16.50;5.47;;;;;;;0.85;79.60;97164.25;1656282;85;21003;-84
2022/02/08 06:04:22;;;;;;;13.60;5.28;;;;;;;0.85;79.24;97174.48;1661605;85;21073;-84
2022/02/08 06:06:48;;;;;;;17.73;6.20;;;;;;;0.85;79.09;97183.91;1659690;85;21383;-84
2022/02/08 06:09:14;;;;;;;22.82;9.50;;;;;;;0.85;79.02;97183.91;1661360;85;21412;-84
2022/02/08 06:11:40;;;;;;;14.78;4.97;;;;;;;0.86;79.24;97180.42;1652736;85;21060;-84
2022/02/08 06:14:07;;;;;;;15.60;6.42;;;;;;;0.85;78.96;97185.19;1645548;85;21500;-84
2022/02/08 06:16:33;;;;;;;41.05;16.20;;;;;;;0.86;79.37;97185.08;1638567;86;21361;-85
2022/02/08 06:18:59;;;;;;;73.90;22.13;;;;;;;0.91;79.41;97184.77;1637327;86;21010;-85
2022/02/08 06:21:25;;;;;;;108.25;31.82;;;;;;;0.92;79.22;97184.30;1701174;83;21364;-84
2022/02/08 06:23:50;;;;;;;23.22;6.40;;;;;;;0.92;79.20;97186.40;1697566;83;21040;-84
2022/02/08 06:26:18;;;;;;;21.12;6.75;;;;;;;0.90;79.09;97174.98;1694887;83;21351;-84
2022/02/08 06:28:46;;;;;;;13.32;5.05;;;;;;;0.88;78.99;97191.38;1695387;83;21019;-84
2022/02/08 06:31:11;;;;;;;18.07;5.53;;;;;;;0.88;79.12;97196.03;1698388;83;21017;-85
2022/02/08 06:33:37;;;;;;;17.90;5.75;;;;;;;0.89;79.17;97195.56;1694394;83;20967;-84
2022/02/08 06:36:03;;;;;;;38.65;11.08;;;;;;;0.89;79.11;97192.55;1686888;83;21356;-84
2022/02/08 06:38:29;;;;;;;15.10;5.75;;;;;;;0.92;79.44;97195.36;1698704;82;21626;-84
2022/02/08 06:40:55;;;;;;;13.05;7.03;;;;;;;0.95;79.45;97204.10;1690369;83;21004;-85
2022/02/08 06:43:21;;;;;;;17.80;5.87;;;;;;;0.96;79.51;97209.58;1694425;83;21044;-84
2022/02/08 06:45:47;;;;;;;13.72;5.87;;;;;;;0.98;79.45;97206.94;1694978;83;21018;-84
2022/02/08 06:48:13;;;;;;;18.50;5.55;;;;;;;0.97;79.40;97209.94;1694867;83;21039;-84
2022/02/08 06:50:39;;;;;;;19.12;8.05;;;;;;;0.99;79.55;97211.95;1696845;83;20976;-85
2022/02/08 06:53:05;;;;;;;15.32;6.70;;;;;;;1.04;79.61;97216.30;1694831;83;20993;-84
2022/02/08 06:55:30;;;;;;;16.77;5.70;;;;;;;1.06;79.27;97220.85;1690173;83;21479;-84
2022/02/08 06:58:04;;;;;;;71.90;21.85;;;;;;;1.05;79.16;97219.21;1694397;83;21387;-84
2022/02/08 07:00:41;;;;;;;197.15;85.28;;;;;;;1.08;79.29;97220.28;1684160;82;21413;-84
2022/02/08 07:02:58;;;;;;;46.88;21.68;;;;;;;1.10;79.58;97226.58;1686279;83;21020;-84
2022/02/08 07:05:24;;;;;;;17.02;7.42;;;;;;;1.13;79.62;97227.19;1698479;83;21043;-84
2022/02/08 07:07:50;;;;;;;18.35;8.15;;;;;;;1.13;79.27;97228.46;1698622;83;21036;-83
2022/02/08 07:10:16;;;;;;;18.15;6.28;;;;;;;1.15;79.22;97238.16;1700548;83;21067;-84
2022/02/08 07:12:44;;;;;;;117.60;30.32;;;;;;;1.16;79.41;97238.52;1659855;83;21383;-84
2022/02/08 07:15:14;;;;;;;27.48;10.13;;;;;;;1.20;79.56;97245.06;1682877;83;21032;-84
2022/02/08 07:17:37;;;;;;;70.60;26.48;;;;;;;1.22;79.39;97245.42;1682263;83;20995;-84
2022/02/08 07:20:04;;;;;;;22.62;10.40;;;;;;;1.26;79.35;97247.67;1680191;83;21011;-86
2022/02/08 07:22:31;;;;;;;111.88;32.55;;;;;;;1.30;79.47;97247.84;1685614;83;21501;-84
2022/02/08 07:24:58;;;;;;;56.70;19.92;;;;;;;1.32;79.12;97248.55;1688047;83;21027;-84
2022/02/08 07:27:27;;;;;;;29.77;12.65;;;;;;;1.34;79.06;97249.73;1688107;83;21343;-85
2022/02/08 07:29:53;;;;;;;229.57;70.72;;;;;;;1.37;78.97;97246.50;1688975;83;21482;-84
2022/02/08 07:32:31;;;;;;;466.50;139.35;;;;;;;1.39;79.05;97245.92;1686352;83;21013;-84
2022/02/08 07:34:58;;;;;;;100.42;27.13;;;;;;;1.43;79.05;97252.94;1633398;86;21019;-85
2022/02/08 07:37:23;;;;;;;94.17;29.45;;;;;;;1.50;78.95;97249.87;1643862;85;21476;-85
2022/02/08 07:39:49;;;;;;;111.88;43.13;;;;;;;1.60;79.13;97236.41;1641504;85;21022;-85
2022/02/08 07:42:12;;;;;;;159.32;55.33;;;;;;;1.69;78.93;97231.48;1654425;85;21040;-84
2022/02/08 07:44:38;;;;;;;294.18;88.42;;;;;;;1.84;78.79;97232.64;1628328;85;21045;-85
2022/02/08 07:47:04;;;;;;;149.42;49.98;;;;;;;1.87;78.22;97224.73;1682117;83;20990;-85
2022/02/08 07:49:33;;;;;;;43.05;18.27;;;;;;;1.89;78.24;97231.84;1692017;83;21108;-85
2022/02/08 07:51:59;;;;;;;65.03;23.05;;;;;;;1.87;77.71;97233.70;1627789;86;21104;-85
2022/02/08 07:54:25;;;;;;;62.03;21.52;;;;;;;1.84;77.76;97235.20;1682870;83;20946;-84
2022/02/08 07:56:51;;;;;;;105.15;36.20;;;;;;;1.84;77.91;97238.58;1685712;83;22497;-85
2022/02/08 07:59:17;;;;;;;86.10;38.78;;;;;;;1.87;78.06;97238.83;1686720;83;21089;-84
2022/02/08 08:01:43;;;;;;;134.85;48.87;;;;;;;1.90;77.99;97238.61;1679880;83;20995;-84
2022/02/08 08:04:08;;;;;;;48.35;18.00;;;;;;;1.94;77.98;97246.42;1662503;83;20977;-84
2022/02/08 08:06:34;;;;;;;21.57;9.45;;;;;;;1.94;77.54;97239.55;1689650;83;21478;-84
2022/02/08 08:09:00;;;;;;;78.75;31.07;;;;;;;1.97;77.52;97238.09;1688608;83;21056;-84
2022/02/08 08:11:35;;;;;;;67.40;24.75;;;;;;;1.96;77.45;97238.20;1674216;83;21001;-85
2022/02/08 08:16:29;;;;;;;110.37;42.45;;;;;;;2.05;77.56;97229.38;1675766;82;21411;-84
2022/02/08 08:21:24;;;;;;;52.13;21.17;;;;;;;2.18;77.33;97228.05;1650855;84;21036;-84
2022/02/08 08:23:49;;;;;;;134.10;47.80;;;;;;;2.20;77.42;97227.48;1630340;86;21048;-85
2022/02/08 08:26:15;;;;;;;82.85;33.02;;;;;;;2.21;77.28;97229.11;1654911;84;21047;-84
2022/02/08 08:28:41;;;;;;;49.65;20.75;;;;;;;2.24;77.18;97230.63;1651118;85;21055;-85
2022/02/08 08:31:06;;;;;;;63.60;24.92;;;;;;;2.25;76.96;97229.70;1680335;83;20988;-84
2022/02/08 08:33:32;;;;;;;38.00;18.90;;;;;;;2.20;76.70;97232.61;1669996;84;21505;-84
2022/02/08 08:35:58;;;;;;;20.20;9.28;;;;;;;2.14;76.86;97238.18;1675107;84;21044;-84
2022/02/08 08:38:26;;;;;;;50.55;19.75;;;;;;;2.06;76.77;97239.98;1674790;83;21053;-84
2022/02/08 08:51:43;;;;;;;40.25;18.87;;;;;;;2.05;77.41;97224.25;1678811;83;21020;-84
2022/02/08 08:54:08;;;;;;;59.83;23.62;;;;;;;2.20;77.61;97222.81;1674713;83;20956;-84
2022/02/08 08:56:39;;;;;;;34.50;15.40;;;;;;;2.28;77.32;97226.95;1676377;83;21000;-84
2022/02/08 08:59:07;;;;;;;;;;;;;;;2.33;77.24;97217.98;1669315;83;21117;-83
2022/02/08 09:01:33;;;;;;;37.53;15.60;;;;;;;2.39;76.83;97219.28;1671640;83;20147;-83
2022/02/08 09:04:01;;;;;;;45.85;16.52;;;;;;;2.41;76.92;97214.39;1672662;84;21008;-84
2022/02/08 09:06:27;;;;;;;36.73;16.75;;;;;;;2.38;76.53;97221.49;1674008;83;21446;-83
2022/02/08 09:08:56;;;;;;;65.32;22.02;;;;;;;2.41;76.81;97211.01;1680916;83;21105;-83
2022/02/08 09:14:07;;;;;;;79.20;27.05;;;;;;;2.64;77.08;97204.22;1651283;85;21026;-83
2022/02/08 09:24:50;;;;;;;54.93;21.62;;;;;;;2.86;76.64;97196.56;1703497;83;21569;-83
2022/02/08 09:27:20;;;;;;;87.65;34.65;;;;;;;2.87;76.27;97194.81;1701565;83;20999;-83
2022/02/08 09:32:29;;;;;;;24.72;11.85;;;;;;;2.85;76.09;97185.12;1702261;83;21100;-83
2022/02/08 09:34:47;;;;;;;25.32;10.35;;;;;;;2.86;76.21;97179.06;1699035;83;21336;-83
2022/02/08 09:37:17;;;;;;;62.78;27.30;;;;;;;2.84;76.29;97179.64;1635206;86;21393;-83
2022/02/08 09:39:46;;;;;;;38.30;17.30;;;;;;;2.82;76.18;97184.08;1692906;83;21552;-83
2022/02/08 09:42:12;;;;;;;24.23;10.55;;;;;;;2.80;76.37;97182.09;1701948;83;20980;-83
2022/02/08 09:44:38;;;;;;;29.92;15.00;;;;;;;2.82;76.24;97185.36;1638375;86;21372;-83
2022/02/08 09:47:11;;;;;;;39.45;15.32;;;;;;;2.83;76.24;97191.66;1696938;83;21000;-83
2022/02/08 09:49:41;;;;;;;37.95;17.67;;;;;;;2.81;75.63;97190.97;1702279;83;21048;-83
2022/02/08 09:52:03;;;;;;;45.08;22.70;;;;;;;2.77;76.14;97192.59;1696150;83;21084;-83
2022/02/08 09:54:31;;;;;;;17.02;8.20;;;;;;;2.76;75.62;97188.37;1703770;83;20998;-84
2022/02/08 09:56:56;;;;;;;36.45;17.50;;;;;;;2.76;75.31;97187.08;1702369;83;21061;-83
2022/02/08 09:59:22;;;;;;;25.75;10.38;;;;;;;2.88;75.53;97185.72;1696616;83;21115;-83
2022/02/08 10:01:53;;;;;;;30.62;12.30;;;;;;;3.00;75.37;97175.00;1702696;83;21062;-83
2022/02/08 10:04:19;;;;;;;15.65;6.83;;;;;;;3.03;74.75;97179.09;1696901;83;20965;-83
2022/02/08 10:06:44;;;;;;;21.42;9.58;;;;;;;3.06;74.55;97182.23;1698022;83;21099;-83
2022/02/08 10:09:10;;;;;;;15.45;4.75;;;;;;;3.13;73.96;97167.20;1681832;83;21036;-83
2022/02/08 10:11:53;;;;;;;11.48;5.05;;;;;;;3.18;74.03;97181.78;1691086;83;21019;-83
2022/02/08 10:14:26;;;;;;;17.52;7.10;;;;;;;3.17;72.73;97180.15;1681978;83;21001;-83
2022/02/08 10:22:35;;;;;;;18.30;7.75;;;;;;;3.09;72.27;97158.07;1683286;83;21057;-84
2022/02/08 10:25:07;;;;;;;11.57;3.77;;;;;;;3.09;72.05;97158.07;1667946;83;21080;-83
2022/02/08 10:27:37;;;;;;;8.88;5.22;;;;;;;3.20;72.33;97151.66;1685321;83;20972;-83
2022/02/08 10:38:45;;;;;;;17.35;7.15;;;;;;;3.49;70.86;97136.11;1674201;83;21379;-84
2022/02/08 10:41:21;;;;;;;12.23;4.72;;;;;;;3.47;70.95;97120.00;1682034;84;21074;-83
2022/02/08 10:43:59;;;;;;;21.12;9.75;;;;;;;3.52;70.38;97119.16;1687055;83;21351;-83
2022/02/08 10:46:24;;;;;;;13.60;6.78;;;;;;;3.60;70.54;97114.73;1688820;83;21005;-83
2022/02/08 10:49:09;;;;;;;11.40;4.47;;;;;;;3.74;70.16;97118.75;1665219;84;20988;-83
2022/02/08 10:51:46;;;;;;;10.25;6.58;;;;;;;3.79;70.16;97103.34;1683679;83;20981;-83
2022/02/08 10:54:16;;;;;;;9.43;4.85;;;;;;;3.91;69.65;97092.55;1688270;83;20974;-83
2022/02/08 10:56:37;;;;;;;9.00;5.00;;;;;;;3.86;68.40;97104.94;1681805;83;20995;-83
2022/02/08 10:59:17;;;;;;;8.88;3.22;;;;;;;3.88;69.21;97096.16;1684009;83;21054;-83
2022/02/08 11:01:44;;;;;;;17.05;6.30;;;;;;;3.94;69.86;97097.91;1666895;83;21036;-83
2022/02/08 11:04:12;;;;;;;10.63;5.25;;;;;;;4.10;69.02;97089.31;1683107;83;21024;-83
2022/02/08 11:06:47;;;;;;;9.88;3.65;;;;;;;4.23;69.16;97098.95;1672640;83;20969;-83
2022/02/08 11:12:24;;;;;;;9.68;4.20;;;;;;;4.55;68.73;97092.91;1616510;84;21020;-83
2022/02/08 11:15:42;;;;;;;10.98;4.90;;;;;;;4.63;67.89;97095.20;1666494;84;21010;-83
2022/02/08 11:20:20;;;;;;;8.58;4.25;;;;;;;4.79;67.50;97083.16;1688974;84;21440;-83
2022/02/08 11:22:52;;;;;;;9.00;4.92;;;;;;;4.92;68.12;97076.03;1624277;86;22175;-83
2022/02/08 11:27:57;;;;;;;8.18;3.45;;;;;;;5.07;66.85;97091.48;1663732;83;21506;-83
2022/02/08 11:30:55;;;;;;;11.25;5.35;;;;;;;5.08;67.20;97075.55;1684206;83;21077;-83
2022/02/08 11:49:52;;;;;;;5.35;2.40;;;;;;;4.69;65.79;97060.40;1686443;84;22122;-83
2022/02/08 11:54:59;;;;;;;6.25;3.55;;;;;;;4.64;65.90;97065.13;1670905;84;21039;-83
2022/02/08 11:59:52;;;;;;;8.83;4.80;;;;;;;4.60;66.31;97050.89;1692674;83;21060;-83
2022/02/08 12:04:57;;;;;;;7.43;3.23;;;;;;;4.55;66.60;97050.44;1690575;83;21053;-83
2022/02/08 12:07:17;;;;;;;6.12;2.83;;;;;;;4.53;66.43;97069.40;1691878;83;20994;-83
2022/02/08 12:32:43;;;;;;;11.70;6.47;;;;;;;4.24;67.63;97038.03;1686240;83;21071;-83
2022/02/08 14:07:38;;;;;;;13.55;6.45;;;;;;;3.13;70.42;96997.72;1671640;84;21418;-83
2022/02/08 14:10:19;;;;;;;8.05;4.92;;;;;;;3.09;70.74;96999.72;1678615;85;21088;-83
2022/02/08 14:15:50;;;;;;;9.85;5.47;;;;;;;3.04;71.20;96985.13;1686126;84;21494;-83
2022/02/08 14:18:07;;;;;;;11.53;6.28;;;;;;;3.03;71.43;96992.48;1692352;84;21035;-83
2022/02/08 14:23:11;;;;;;;11.95;6.67;;;;;;;3.05;71.84;96985.47;1704594;83;21051;-83
2022/02/08 14:25:46;;;;;;;10.63;5.80;;;;;;;3.06;71.89;96985.81;1704835;83;20996;-83
2022/02/08 14:30:54;;;;;;;19.45;9.48;;;;;;;3.01;72.45;96990.50;1673988;84;21044;-83
2022/02/08 14:33:34;;;;;;;19.45;10.05;;;;;;;2.98;72.93;96994.12;1703692;83;21024;-83
2022/02/08 14:36:09;;;;;;;17.65;8.10;;;;;;;2.96;73.35;96993.44;1697554;84;21020;-83
2022/02/08 14:57:30;;;;;;;22.30;11.55;;;;;;;2.94;73.95;96927.75;1692839;84;21019;-83
2022/02/08 14:57:43;;;;;;;12.10;6.95;;;;;;;2.98;74.59;96959.47;1694179;84;21051;-83
2022/02/08 15:08:13;;;;;;;19.82;10.13;;;;;;;2.88;75.48;96972.66;1694315;82;21027;-83
2022/02/08 15:13:06;;;;;;;21.40;10.10;;;;;;;2.86;76.60;96969.88;1704602;83;22208;-83
2022/02/08 15:18:10;;;;;;;11.53;6.67;;;;;;;2.82;76.39;96969.30;1694118;83;21035;-83
2022/02/08 15:20:35;;;;;;;12.28;6.78;;;;;;;2.82;76.51;96972.34;1676519;84;20991;-83
2022/02/08 15:23:04;;;;;;;11.97;5.67;;;;;;;2.80;76.58;96969.89;1688988;82;20998;-83
2022/02/08 15:25:30;;;;;;;8.80;5.28;;;;;;;2.79;76.68;96970.02;1681884;83;20996;-83
2022/02/08 15:28:02;;;;;;;12.50;5.92;;;;;;;2.79;76.87;96969.55;1680284;84;21063;-83
2022/02/08 15:30:24;;;;;;;13.98;6.95;;;;;;;2.80;77.31;96960.09;1674477;84;21016;-83
2022/02/08 15:32:50;;;;;;;18.73;10.08;;;;;;;2.83;76.87;96950.88;1679341;84;20987;-83
2022/02/08 15:35:16;;;;;;;10.63;5.62;;;;;;;2.83;76.94;96954.25;1689840;82;21433;-83
2022/02/08 15:37:42;;;;;;;27.77;12.70;;;;;;;2.84;77.10;96966.15;1656406;82;21022;-83
2022/02/08 15:40:10;;;;;;;14.75;7.78;;;;;;;2.85;77.09;96960.55;1691906;84;21012;-83
2022/02/08 15:42:40;;;;;;;15.25;6.92;;;;;;;2.86;77.23;96969.88;1683454;83;21046;-83
2022/02/08 15:45:29;;;;;;;8.00;5.05;;;;;;;2.86;77.66;96979.67;1688586;83;21343;-83
2022/02/08 15:47:36;;;;;;;7.85;5.15;;;;;;;2.88;77.39;96980.83;1691616;83;21023;-83
2022/02/08 15:50:09;;;;;;;14.47;9.50;;;;;;;2.93;77.49;96978.28;1681513;84;20991;-83
2022/02/08 15:53:00;;;;;;;33.67;14.07;;;;;;;2.96;77.41;96988.30;1664359;86;21069;-83
2022/02/08 15:55:00;;;;;;;50.43;21.62;;;;;;;2.98;77.59;96988.18;1677627;84;22199;-83
2022/02/08 16:00:40;;;;;;;34.10;12.63;;;;;;;2.99;77.68;96985.95;1690196;84;21454;-83
2022/02/08 16:05:45;;;;;;;25.48;10.63;;;;;;;2.98;78.59;96974.87;1699384;82;21039;-83
2022/02/08 16:08:05;;;;;;;18.02;8.95;;;;;;;3.03;79.31;96974.50;1675757;82;21004;-85
2022/02/08 16:10:44;;;;;;;23.90;10.13;;;;;;;3.04;79.35;96954.31;1679624;84;21043;-82
2022/02/08 16:18:18;;;;;;;23.32;10.55;;;;;;;2.96;79.56;96961.34;1671733;83;21072;-82
2022/02/08 16:26:08;;;;;;;20.20;10.82;;;;;;;2.93;80.15;96965.45;1672975;85;21530;-83
2022/02/08 16:28:48;;;;;;;19.23;9.90;;;;;;;2.96;80.54;96958.78;1673847;85;21029;-82
2022/02/08 16:55:32;;;;;;;12.68;7.85;;;;;;;3.01;82.10;96987.47;1668530;85;21133;-83
2022/02/08 17:00:23;;;;;;;21.48;11.45;;;;;;;3.06;82.00;97000.41;1682213;85;21025;-83
2022/02/08 17:02:54;;;;;;;32.48;18.32;;;;;;;3.06;82.00;96997.84;1684929;85;21002;-83
2022/02/08 17:05:17;;;;;;;33.85;17.98;;;;;;;3.04;82.27;97004.38;1689525;84;20970;-83
2022/02/08 17:07:43;;;;;;;11.12;7.05;;;;;;;3.01;82.41;96985.37;1688777;85;21013;-83
2022/02/08 17:10:26;;;;;;;26.42;11.25;;;;;;;3.00;82.46;96981.98;1687880;84;21383;-83
2022/02/08 17:12:45;;;;;;;21.85;11.33;;;;;;;3.00;83.22;96976.85;1687860;83;21528;-82
2022/02/08 17:49:38;;;;;;;14.78;9.93;;;;;;;3.10;84.37;96985.13;1706462;84;20960;-83
2022/02/08 17:52:07;;;;;;;42.50;15.88;;;;;;;3.09;84.65;96977.05;1703163;83;21041;-83
2022/02/08 17:54:34;;;;;;;182.60;92.60;;;;;;;3.09;84.56;96986.03;1668511;84;21083;-83
2022/02/08 17:57:02;;;;;;;74.32;24.43;;;;;;;3.10;85.08;96974.39;1687706;82;21372;-84
2022/02/08 17:59:29;;;;;;;35.98;14.73;;;;;;;3.13;85.20;96972.05;1699792;84;21025;-83
2022/02/08 18:01:55;;;;;;;68.25;23.87;;;;;;;3.14;85.98;96964.22;1699538;82;20954;-83
2022/02/08 18:04:21;;;;;;;66.42;22.75;;;;;;;3.15;85.73;96969.70;1685794;84;21000;-84
2022/02/08 18:06:48;;;;;;;85.83;27.37;;;;;;;3.14;85.70;96970.63;1694766;83;21455;-83
2022/02/08 18:09:17;;;;;;;42.48;16.87;;;;;;;3.16;85.99;96966.66;1690980;83;21399;-83
2022/02/08 18:11:42;;;;;;;25.43;10.95;;;;;;;3.14;86.31;96982.19;1683903;82;21060;-83
2022/02/08 18:14:12;;;;;;;49.45;17.65;;;;;;;3.14;86.23;96971.11;1686883;82;21012;-83
2022/02/08 18:16:38;;;;;;;146.60;67.85;;;;;;;3.15;86.41;96964.56;1692766;82;21124;-83
2022/02/08 18:19:12;;;;;;;138.62;39.03;;;;;;;3.16;86.72;96962.81;1680724;82;21043;-83